createdAt,value
2023-01-09T00:01:35.060Z,7.40
2023-01-09T00:04:02.496Z,7.40
2023-01-09T00:06:29.570Z,7.40
2023-01-09T00:08:56.798Z,7.40
2023-01-09T00:11:23.830Z,7.40
2023-01-09T00:13:50.841Z,7.40
2023-01-09T00:16:18.123Z,7.30
2023-01-09T00:18:45.180Z,7.30
2023-01-09T00:21:13.551Z,7.40
2023-01-09T00:23:40.844Z,7.40
2023-01-09T00:26:14.473Z,7.30
2023-01-09T00:28:41.502Z,7.30
2023-01-09T00:31:09.368Z,7.30
2023-01-09T00:33:50.766Z,7.20
2023-01-09T00:36:17.739Z,7.20
2023-01-09T00:38:44.697Z,7.20
2023-01-09T00:41:24.268Z,7.20
2023-01-09T00:43:56.506Z,7.10
2023-01-09T00:46:29.382Z,7.10
2023-01-09T00:48:56.458Z,7.10
2023-01-09T00:51:24.308Z,7.10
2023-01-09T00:53:54.651Z,7.10
2023-01-09T00:56:22.463Z,7.10
2023-01-09T00:58:49.827Z,7.00
2023-01-09T01:01:16.935Z,7.10
2023-01-09T01:03:44.126Z,7.10
2023-01-09T01:06:31.125Z,7.00
2023-01-09T01:08:58.147Z,6.90
2023-01-09T01:11:25.199Z,6.90
2023-01-09T01:13:52.430Z,6.90
2023-01-09T01:16:19.785Z,6.90
2023-01-09T01:18:46.900Z,6.80
2023-01-09T01:21:14.730Z,6.80
2023-01-09T01:23:42.197Z,6.80
2023-01-09T01:26:16.043Z,6.70
2023-01-09T01:28:43.327Z,6.70
2023-01-09T01:31:18.026Z,6.70
2023-01-09T01:33:45.099Z,6.70
2023-01-09T01:36:12.375Z,6.60
2023-01-09T01:38:39.433Z,6.70
2023-01-09T01:41:07.729Z,6.70
2023-01-09T01:43:57.055Z,6.60
2023-01-09T01:46:27.940Z,6.60
2023-01-09T01:49:13.838Z,6.60
2023-01-09T01:51:47.608Z,6.50
2023-01-09T01:54:22.141Z,6.50
2023-01-09T01:56:57.109Z,6.50
2023-01-09T01:59:29.372Z,6.40
2023-01-09T02:04:28.268Z,6.40
2023-01-09T02:06:56.873Z,6.40
2023-01-09T02:09:25.417Z,6.40
2023-01-09T02:12:00.530Z,6.40
2023-01-09T02:14:32.790Z,6.30
2023-01-09T02:17:42.554Z,6.30
2023-01-09T02:20:36.763Z,6.30
2023-01-09T02:23:45.978Z,6.30
2023-01-09T02:26:21.659Z,6.20
2023-01-09T02:29:30.282Z,6.10
2023-01-09T02:32:31.275Z,6.10
2023-01-09T02:35:15.717Z,6.20
2023-01-09T02:38:38.185Z,6.20
2023-01-09T02:41:21.586Z,6.10
2023-01-09T02:43:48.641Z,6.10
2023-01-09T02:46:22.431Z,6.10
2023-01-09T02:48:52.921Z,6.10
2023-01-09T02:51:53.288Z,6.00
2023-01-09T02:54:46.838Z,6.00
2023-01-09T02:57:51.103Z,6.00
2023-01-09T03:00:41.952Z,6.10
2023-01-09T03:03:33.225Z,6.00
2023-01-09T03:06:20.800Z,6.00
2023-01-09T03:08:55.302Z,6.00
2023-01-09T03:11:22.709Z,6.00
2023-01-09T03:13:56.950Z,6.00
2023-01-09T03:16:30.542Z,6.00
2023-01-09T03:18:58.993Z,5.90
2023-01-09T03:21:27.127Z,5.90
2023-01-09T03:24:00.826Z,5.90
2023-01-09T03:26:32.033Z,5.90
2023-01-09T03:28:59.746Z,5.90
2023-01-09T03:31:27.463Z,5.90
2023-01-09T03:33:54.574Z,5.90
2023-01-09T03:36:22.986Z,5.90
2023-01-09T03:38:51.491Z,5.80
2023-01-09T03:41:19.781Z,5.80
2023-01-09T03:43:48.558Z,5.80
2023-01-09T03:46:16.899Z,5.80
2023-01-09T03:48:43.918Z,5.80
2023-01-09T03:51:11.261Z,5.80
2023-01-09T03:53:38.278Z,5.80
2023-01-09T03:56:05.565Z,5.80
2023-01-09T03:58:32.587Z,5.80
2023-01-09T04:01:02.818Z,5.80
2023-01-09T04:03:30.027Z,5.80
2023-01-09T04:05:57.576Z,5.90
2023-01-09T04:08:24.588Z,5.90
2023-01-09T04:10:51.963Z,5.90
2023-01-09T04:13:19.401Z,5.80
2023-01-09T04:15:46.803Z,5.80
2023-01-09T04:18:13.894Z,5.80
2023-01-09T04:20:41.291Z,5.70
2023-01-09T04:23:08.510Z,5.70
2023-01-09T04:25:35.766Z,5.70
2023-01-09T04:28:02.771Z,5.70
2023-01-09T04:30:29.762Z,5.70
2023-01-09T04:32:56.765Z,5.60
2023-01-09T04:35:23.907Z,5.60
2023-01-09T04:37:50.946Z,5.60
2023-01-09T04:40:18.838Z,5.60
2023-01-09T04:42:46.045Z,5.60
2023-01-09T06:03:32.162Z,5.20
2023-01-09T06:05:59.348Z,5.30
2023-01-09T06:08:26.326Z,5.30
2023-01-09T06:10:53.558Z,5.30
2023-01-09T06:13:20.573Z,5.30
2023-01-09T06:15:48.660Z,5.30
2023-01-09T06:18:16.003Z,5.30
2023-01-09T06:20:46.079Z,5.30
2023-01-09T06:23:13.784Z,5.30
2023-01-09T06:25:41.283Z,5.30
2023-01-09T06:28:08.348Z,5.30
2023-01-09T06:30:35.419Z,5.30
2023-01-09T06:33:02.396Z,5.30
2023-01-09T06:35:29.663Z,5.30
2023-01-09T06:37:57.735Z,5.40
2023-01-09T06:40:24.783Z,5.40
2023-01-09T06:42:51.800Z,5.50
2023-01-09T06:45:22.153Z,5.50
2023-01-09T06:47:50.216Z,5.50
2023-01-09T06:50:20.339Z,5.60
2023-01-09T06:52:48.012Z,5.60
2023-01-09T06:55:16.868Z,5.60
2023-01-09T06:57:44.247Z,5.70
2023-01-09T07:00:12.108Z,5.70
2023-01-09T07:02:39.423Z,5.70
2023-01-09T07:05:08.553Z,5.70
2023-01-09T07:07:35.631Z,5.80
2023-01-09T07:10:02.693Z,5.80
2023-01-09T07:12:29.676Z,5.80
2023-01-09T07:14:57.683Z,5.80
2023-01-09T07:17:24.895Z,5.80
2023-01-09T07:19:51.971Z,5.80
2023-01-09T07:22:19.183Z,5.80
2023-01-09T07:24:46.725Z,5.80
2023-01-09T07:27:14.032Z,5.80
2023-01-09T07:29:41.113Z,5.80
2023-01-09T07:32:08.159Z,5.80
2023-01-09T07:34:35.191Z,5.80
2023-01-09T07:37:02.159Z,5.80
2023-01-09T07:39:29.481Z,5.80
2023-01-09T07:41:56.526Z,5.80
2023-01-09T07:44:24.145Z,5.80
2023-01-09T07:46:51.128Z,5.90
2023-01-09T07:49:18.373Z,5.90
2023-01-09T07:51:45.945Z,5.80
2023-01-09T07:54:13.618Z,5.80
2023-01-09T07:56:41.078Z,5.80
2023-01-09T07:59:08.046Z,5.80
2023-01-09T08:01:35.264Z,5.90
2023-01-09T08:04:02.397Z,5.90
2023-01-09T08:06:30.143Z,5.90
2023-01-09T08:08:57.853Z,5.90
2023-01-09T08:11:25.541Z,5.90
2023-01-09T08:13:52.642Z,5.90
2023-01-09T08:16:19.791Z,5.90
2023-01-09T08:18:47.178Z,5.90
2023-01-09T08:21:14.505Z,5.90
2023-01-09T08:23:41.548Z,5.90
2023-01-09T08:26:08.817Z,6.00
2023-01-09T08:28:35.861Z,5.90
2023-01-09T08:31:02.975Z,6.00
2023-01-09T08:33:30.284Z,6.00
2023-01-09T08:35:57.531Z,6.00
2023-01-09T08:38:24.536Z,6.00
2023-01-09T08:40:51.541Z,6.00
2023-01-09T08:43:37.467Z,6.10
2023-01-09T08:46:23.244Z,6.10
2023-01-09T08:48:50.321Z,6.10
2023-01-09T08:51:17.859Z,6.10
2023-01-09T08:53:44.845Z,6.10
2023-01-09T08:56:11.806Z,6.10
2023-01-09T08:58:38.820Z,6.10
2023-01-09T09:01:07.901Z,6.20
2023-01-09T09:03:35.004Z,6.20
2023-01-09T09:06:02.034Z,6.20
2023-01-09T09:08:32.140Z,6.20
2023-01-09T09:11:01.307Z,6.20
2023-01-09T09:13:30.839Z,6.20
2023-01-09T09:15:57.930Z,6.20
2023-01-09T09:18:25.007Z,6.20
2023-01-09T09:20:51.990Z,6.20
2023-01-09T09:23:18.926Z,6.20
2023-01-09T09:25:48.176Z,6.20
2023-01-09T09:28:15.212Z,6.20
2023-01-09T09:30:42.949Z,6.20
2023-01-09T09:33:10.063Z,6.30
2023-01-09T09:35:37.321Z,6.30
2023-01-09T09:38:06.090Z,6.30
2023-01-09T09:41:30.791Z,6.40
2023-01-09T09:44:48.464Z,6.40
2023-01-09T09:47:46.964Z,6.50
2023-01-09T09:50:39.165Z,6.50
2023-01-09T09:53:26.886Z,6.60
2023-01-09T09:55:53.897Z,6.60
2023-01-09T09:58:44.893Z,6.70
2023-01-09T10:01:20.344Z,6.70
2023-01-09T10:04:11.526Z,6.70
2023-01-09T10:06:46.759Z,6.70
2023-01-09T10:09:25.539Z,6.80
2023-01-09T10:12:07.490Z,6.80
2023-01-09T10:14:34.409Z,6.90
2023-01-09T10:17:29.210Z,6.90
2023-01-09T10:20:34.205Z,6.90
2023-01-09T10:23:35.087Z,6.90
2023-01-09T10:26:18.016Z,6.90
2023-01-09T10:29:09.571Z,7.00
2023-01-09T10:32:12.643Z,7.00
2023-01-09T10:34:54.556Z,7.00
2023-01-09T10:37:39.052Z,7.00
2023-01-09T10:40:23.201Z,7.00
2023-01-09T10:43:20.410Z,7.00
2023-01-09T10:45:54.673Z,7.00
2023-01-09T10:48:37.221Z,7.10
2023-01-09T10:51:28.052Z,7.00
2023-01-09T10:53:56.623Z,7.00
2023-01-09T10:56:30.150Z,7.00
2023-01-09T10:58:57.541Z,7.00
2023-01-09T11:01:34.030Z,7.00
2023-01-09T11:04:02.466Z,7.00
2023-01-09T11:06:46.831Z,7.00
2023-01-09T11:09:15.272Z,7.00
2023-01-09T11:11:43.066Z,7.00
2023-01-09T11:14:27.723Z,7.00
2023-01-09T11:16:58.034Z,7.10
2023-01-09T11:19:26.765Z,7.10
2023-01-09T11:22:18.076Z,7.10
2023-01-09T11:24:45.066Z,7.10
2023-01-09T11:27:24.933Z,7.10
2023-01-09T11:30:14.799Z,7.20
2023-01-09T11:32:43.244Z,7.20
2023-01-09T11:35:34.423Z,7.20
2023-01-09T11:38:17.059Z,7.20
2023-01-09T11:40:54.479Z,7.20
2023-01-09T11:43:40.130Z,7.30
2023-01-09T11:46:11.677Z,7.30
2023-01-09T11:48:57.028Z,7.30
2023-01-09T11:51:31.280Z,7.40
2023-01-09T11:54:13.212Z,7.40
2023-01-09T11:56:40.154Z,7.50
2023-01-09T11:59:20.038Z,7.50
2023-01-09T12:02:08.217Z,7.50
2023-01-09T12:04:38.343Z,7.50
2023-01-09T12:07:25.722Z,7.50
2023-01-09T12:10:01.591Z,7.70
2023-01-09T12:12:46.682Z,7.80
2023-01-09T12:15:38.988Z,7.90
2023-01-09T12:18:35.431Z,7.90
2023-01-09T12:21:14.455Z,8.00
2023-01-09T12:24:20.550Z,7.90
2023-01-09T12:27:17.426Z,8.00
2023-01-09T12:29:51.276Z,8.00
2023-01-09T12:32:39.953Z,8.00
2023-01-09T12:35:34.399Z,8.00
2023-01-09T12:38:21.893Z,8.00
2023-01-09T12:41:14.426Z,8.00
2023-01-09T12:44:00.029Z,8.10
2023-01-09T12:46:53.453Z,8.10
2023-01-09T12:49:41.687Z,8.10
2023-01-09T12:52:23.359Z,8.10
2023-01-09T12:55:28.820Z,8.20
2023-01-09T12:57:58.374Z,8.30
2023-01-09T13:00:31.055Z,8.30
2023-01-09T13:03:12.638Z,8.30
2023-01-09T13:05:51.397Z,8.30
2023-01-09T13:08:48.735Z,8.30
2023-01-09T13:11:25.111Z,8.30
2023-01-09T13:14:13.247Z,8.10
2023-01-09T13:16:46.306Z,8.10
2023-01-09T13:19:42.342Z,8.00
2023-01-09T13:22:14.467Z,7.90
2023-01-09T13:25:27.523Z,7.90
2023-01-09T13:28:02.179Z,7.80
2023-01-09T13:31:02.940Z,7.90
2023-01-09T13:33:34.257Z,7.80
2023-01-09T13:36:03.697Z,7.80
2023-01-09T13:38:32.955Z,7.80
2023-01-09T13:41:32.778Z,7.80
2023-01-09T13:44:25.989Z,7.80
2023-01-09T13:46:56.736Z,7.90
2023-01-09T13:49:47.647Z,7.90
2023-01-09T13:52:38.397Z,7.90
2023-01-09T13:55:15.086Z,7.90
2023-01-09T13:57:46.990Z,7.90
2023-01-09T14:00:14.677Z,8.00
2023-01-09T14:02:42.079Z,8.00
2023-01-09T14:05:36.442Z,8.00
2023-01-09T14:08:11.130Z,8.00
2023-01-09T14:10:51.638Z,8.00
2023-01-09T14:13:23.057Z,8.00
2023-01-09T14:15:52.318Z,8.10
2023-01-09T14:18:24.324Z,8.10
2023-01-09T14:21:03.784Z,8.10
2023-01-09T14:23:51.392Z,8.10
2023-01-09T14:26:41.497Z,8.10
2023-01-09T14:29:36.337Z,8.10
2023-01-09T14:32:26.389Z,8.10
2023-01-09T14:34:59.173Z,8.10
2023-01-09T14:37:27.896Z,8.10
2023-01-09T14:39:56.055Z,8.10
2023-01-09T14:42:28.809Z,8.20
2023-01-09T14:45:07.180Z,8.10
2023-01-09T14:47:44.876Z,8.10
2023-01-09T14:50:36.019Z,8.10
2023-01-09T14:53:37.490Z,8.10
2023-01-09T14:56:07.401Z,8.00
2023-01-09T14:58:37.806Z,8.00
2023-01-09T15:01:10.658Z,8.00
2023-01-09T15:03:49.573Z,7.90
2023-01-09T15:06:19.781Z,7.90
2023-01-09T15:08:49.759Z,7.90
2023-01-09T15:11:16.936Z,7.90
2023-01-09T15:13:47.934Z,7.90
2023-01-09T15:16:21.110Z,7.90
2023-01-09T15:18:52.927Z,7.90
2023-01-09T15:21:23.951Z,7.80
2023-01-09T15:23:51.161Z,7.80
2023-01-09T15:26:29.566Z,7.80
2023-01-09T15:29:11.829Z,7.80
2023-01-09T15:31:39.202Z,7.70
2023-01-09T15:34:06.150Z,7.70
2023-01-09T15:36:33.271Z,7.70
2023-01-09T15:39:00.647Z,7.70
2023-01-09T15:41:48.706Z,7.70
2023-01-09T15:44:26.355Z,7.70
2023-01-09T15:46:57.906Z,7.70
2023-01-09T15:49:25.407Z,7.70
2023-01-09T15:51:52.468Z,7.70
2023-01-09T15:54:33.548Z,7.70
2023-01-09T15:57:25.178Z,7.70
2023-01-09T15:59:53.263Z,7.70
2023-01-09T16:02:41.095Z,7.60
2023-01-09T16:05:14.178Z,7.60
2023-01-09T16:07:49.620Z,7.60
2023-01-09T16:10:29.669Z,7.60
2023-01-09T16:12:58.118Z,7.50
2023-01-09T16:15:27.590Z,7.50
2023-01-09T16:18:18.462Z,7.40
2023-01-09T16:20:45.640Z,7.40
2023-01-09T16:23:24.059Z,7.40
2023-01-09T16:25:51.003Z,7.30
2023-01-09T16:28:24.501Z,7.30
2023-01-09T16:30:56.441Z,7.30
2023-01-09T16:33:25.423Z,7.30
2023-01-09T16:35:52.623Z,7.20
2023-01-09T16:38:21.284Z,7.20
2023-01-09T16:41:24.017Z,7.20
2023-01-09T16:43:51.140Z,7.20
2023-01-09T16:46:21.210Z,7.20
2023-01-09T16:48:48.234Z,7.20
2023-01-09T16:51:16.885Z,7.10
2023-01-09T16:53:44.116Z,7.10
2023-01-09T16:56:24.561Z,7.00
2023-01-09T16:58:53.482Z,7.00
2023-01-09T17:01:21.934Z,6.90
2023-01-09T17:03:49.815Z,6.90
2023-01-09T17:06:27.698Z,6.90
2023-01-09T17:08:54.847Z,6.90
2023-01-09T17:11:32.086Z,6.90
2023-01-09T17:14:03.936Z,6.90
2023-01-09T17:16:31.140Z,6.90
2023-01-09T17:18:58.395Z,7.00
2023-01-09T17:21:30.950Z,6.90
2023-01-09T17:24:19.918Z,7.00
2023-01-09T17:27:08.636Z,7.10
2023-01-09T17:29:35.836Z,7.10
2023-01-09T17:32:03.034Z,7.10
2023-01-09T17:34:30.159Z,7.10
2023-01-09T17:36:57.553Z,7.00
2023-01-09T17:39:24.583Z,7.00
2023-01-09T17:41:51.601Z,7.00
2023-01-09T17:44:18.622Z,7.00
2023-01-09T17:46:45.768Z,6.90
2023-01-09T17:49:21.356Z,6.90
2023-01-09T17:51:48.580Z,6.90
2023-01-09T17:54:15.714Z,6.80
2023-01-09T17:56:50.824Z,6.80
2023-01-09T17:59:18.543Z,6.80
2023-01-09T18:01:46.881Z,6.80
2023-01-09T18:04:13.955Z,6.80
2023-01-09T18:06:40.940Z,6.80
2023-01-09T18:09:08.113Z,6.80
2023-01-09T18:11:35.280Z,6.80
2023-01-09T18:14:03.084Z,6.80
2023-01-09T18:16:30.404Z,6.80
2023-01-09T18:18:58.887Z,6.80
2023-01-09T18:21:28.037Z,6.80
2023-01-09T18:23:55.999Z,6.80
2023-01-09T18:26:23.760Z,6.80
2023-01-09T18:28:55.228Z,6.80
2023-01-09T18:31:24.110Z,6.80
2023-01-09T18:33:52.634Z,6.80
2023-01-09T18:36:22.215Z,6.80
2023-01-09T18:38:53.602Z,6.90
2023-01-09T18:41:21.691Z,6.80
2023-01-09T18:43:50.640Z,6.80
2023-01-09T18:46:24.183Z,6.80
2023-01-09T18:48:56.237Z,6.90
2023-01-09T18:51:24.805Z,6.80
2023-01-09T18:53:52.622Z,6.80
2023-01-09T18:56:20.392Z,6.80
2023-01-09T18:58:48.468Z,6.80
2023-01-09T19:01:16.912Z,6.80
2023-01-09T19:03:45.258Z,6.80
2023-01-09T19:06:13.050Z,6.80
2023-01-09T19:08:40.024Z,6.80
2023-01-09T19:11:07.170Z,6.80
2023-01-09T19:13:36.787Z,6.70
2023-01-09T19:16:06.082Z,6.70
2023-01-09T19:18:35.733Z,6.70
2023-01-09T19:21:08.153Z,6.70
2023-01-09T19:23:35.136Z,6.60
2023-01-09T19:26:06.363Z,6.60
2023-01-09T19:28:33.383Z,6.60
2023-01-09T19:31:00.425Z,6.60
2023-01-09T19:33:27.707Z,6.50
2023-01-09T19:35:54.755Z,6.50
2023-01-09T19:38:23.330Z,6.50
2023-01-09T19:40:50.586Z,6.50
2023-01-09T19:43:26.728Z,6.50
2023-01-09T19:45:55.172Z,6.50
2023-01-09T19:48:23.907Z,6.50
2023-01-09T19:50:50.917Z,6.50
2023-01-09T19:53:18.473Z,6.50
2023-01-09T19:55:45.615Z,6.60
2023-01-09T19:58:12.682Z,6.60
2023-01-09T20:00:39.686Z,6.60
2023-01-09T20:03:06.651Z,6.60
2023-01-09T20:05:33.670Z,6.60
2023-01-09T20:08:00.590Z,6.60
2023-01-09T20:10:27.596Z,6.60
2023-01-09T20:12:54.932Z,6.50
2023-01-09T20:15:22.841Z,6.50
2023-01-09T20:17:49.813Z,6.60
2023-01-09T20:22:43.721Z,6.70
2023-01-09T20:25:10.716Z,6.70
2023-01-09T20:27:37.612Z,6.70
2023-01-09T20:30:05.478Z,6.70
2023-01-09T20:32:32.655Z,6.70
2023-01-09T20:35:00.793Z,6.60
2023-01-09T20:37:27.855Z,6.60
2023-01-09T20:39:54.860Z,6.60
2023-01-09T20:42:21.810Z,6.60
2023-01-09T20:44:48.711Z,6.60
2023-01-09T20:47:15.615Z,6.60
2023-01-09T20:49:42.541Z,6.60
2023-01-09T20:52:09.473Z,6.60
2023-01-09T20:54:36.433Z,6.60
2023-01-09T20:57:03.425Z,6.60
2023-01-09T20:59:30.423Z,6.60
2023-01-09T21:01:57.601Z,6.60
2023-01-09T21:04:24.528Z,6.60
2023-01-09T21:06:51.459Z,6.60
2023-01-09T21:09:18.467Z,6.60
2023-01-09T21:11:47.986Z,6.60
2023-01-09T21:14:14.997Z,6.60
2023-01-09T21:16:43.062Z,6.60
2023-01-09T21:19:10.960Z,6.70
2023-01-09T21:21:37.973Z,6.70
2023-01-09T21:24:07.380Z,6.70
2023-01-09T21:26:34.377Z,6.70
2023-01-09T21:29:01.611Z,6.70
2023-01-09T21:31:34.412Z,6.70
2023-01-09T21:34:07.075Z,6.70
2023-01-09T21:36:35.614Z,6.70
2023-01-09T21:39:08.186Z,6.70
2023-01-09T21:41:53.816Z,6.60
2023-01-09T21:44:39.251Z,6.70
2023-01-09T21:47:06.143Z,6.70
2023-01-09T21:49:35.161Z,6.70
2023-01-09T21:52:04.217Z,6.70
2023-01-09T21:54:31.161Z,6.70
2023-01-09T21:56:58.400Z,6.70
2023-01-09T21:59:25.503Z,6.70
2023-01-09T22:01:52.748Z,6.70
2023-01-09T22:04:22.905Z,6.70
2023-01-09T22:06:49.991Z,6.70
2023-01-09T22:09:20.199Z,6.70
2023-01-09T22:11:47.766Z,6.70
2023-01-09T22:14:16.785Z,6.70
2023-01-09T22:16:44.359Z,6.70
2023-01-09T22:19:12.359Z,6.60
2023-01-09T22:21:39.365Z,6.60
2023-01-09T22:24:06.590Z,6.60
2023-01-09T22:26:34.164Z,6.70
2023-01-09T22:29:01.148Z,6.60
2023-01-09T22:31:32.885Z,6.60
2023-01-09T22:34:01.409Z,6.60
2023-01-09T22:36:29.410Z,6.50
2023-01-09T22:39:01.289Z,6.50
2023-01-09T22:41:29.844Z,6.50
2023-01-09T22:43:56.973Z,6.50
2023-01-09T22:46:23.996Z,6.50
2023-01-09T22:48:50.929Z,6.50
2023-01-09T22:51:19.234Z,6.50
2023-01-09T22:53:46.660Z,6.50
2023-01-09T22:56:15.678Z,6.40
2023-01-09T22:58:42.714Z,6.50
2023-01-09T23:01:13.027Z,6.50
2023-01-09T23:03:40.291Z,6.50
2023-01-09T23:06:15.594Z,6.50
2023-01-09T23:08:42.588Z,6.40
2023-01-09T23:11:16.748Z,6.40
2023-01-09T23:13:43.710Z,6.40
2023-01-09T23:16:10.648Z,6.30
2023-01-09T23:18:37.613Z,6.30
2023-01-09T23:21:05.112Z,6.30
2023-01-09T23:23:32.503Z,6.30
2023-01-09T23:26:02.196Z,6.20
2023-01-09T23:28:30.645Z,6.20
2023-01-09T23:30:57.723Z,6.20
2023-01-09T23:33:24.713Z,6.30
2023-01-09T23:35:51.624Z,6.30
2023-01-09T23:38:18.563Z,6.30
2023-01-09T23:40:45.579Z,6.30
2023-01-09T23:43:13.993Z,6.30
2023-01-09T23:45:45.213Z,6.20
2023-01-09T23:48:14.325Z,6.20
2023-01-09T23:50:54.159Z,6.20
2023-01-09T23:53:22.238Z,6.10
2023-01-09T23:55:49.810Z,6.10
2023-01-09T23:58:16.893Z,6.10
